createdAt,value
2023-02-28T00:01:30.075Z,101431.72
2023-02-28T00:03:57.322Z,101431.13
2023-02-28T00:06:25.461Z,101442.97
2023-02-28T00:08:52.614Z,101444.72
2023-02-28T00:11:19.609Z,101450.09
2023-02-28T00:13:48.371Z,101457.44
2023-02-28T00:16:19.297Z,101449.31
2023-02-28T00:18:46.362Z,101453.38
2023-02-28T00:21:13.249Z,101453.56
2023-02-28T00:23:40.219Z,101457.53
2023-02-28T00:26:07.131Z,101463.72
2023-02-28T00:28:34.164Z,101464.78
2023-02-28T00:31:01.370Z,101462.59
2023-02-28T00:33:29.286Z,101464.59
2023-02-28T00:36:06.473Z,101472.62
2023-02-28T00:38:33.652Z,101465.16
2023-02-28T00:41:05.824Z,101474.94
2023-02-28T00:43:37.438Z,101481.94
2023-02-28T00:46:04.954Z,101487.00
2023-02-28T00:48:32.112Z,101479.44
2023-02-28T00:50:59.066Z,101479.81
2023-02-28T00:53:26.298Z,101484.97
2023-02-28T00:55:53.431Z,101480.56
2023-02-28T00:58:20.579Z,101486.81
2023-02-28T01:00:50.275Z,101483.00
2023-02-28T01:03:19.280Z,101482.13
2023-02-28T01:05:46.719Z,101487.59
2023-02-28T01:08:14.848Z,101491.78
2023-02-28T01:10:41.975Z,101483.69
2023-02-28T01:13:08.902Z,101481.84
2023-02-28T01:15:35.926Z,101477.06
2023-02-28T01:18:02.959Z,101479.56
2023-02-28T01:20:29.836Z,101483.56
2023-02-28T01:22:56.710Z,101481.03
2023-02-28T01:25:23.779Z,101474.81
2023-02-28T01:27:50.645Z,101476.44
2023-02-28T01:30:17.665Z,101490.09
2023-02-28T01:32:44.536Z,101485.13
2023-02-28T01:35:11.459Z,101476.84
2023-02-28T01:37:38.353Z,101471.19
2023-02-28T01:40:05.900Z,101478.44
2023-02-28T01:42:32.806Z,101480.87
2023-02-28T01:45:05.325Z,101477.28
2023-02-28T01:47:44.809Z,101474.44
2023-02-28T01:50:18.796Z,101480.03
2023-02-28T01:52:48.328Z,101476.12
2023-02-28T01:55:18.029Z,101485.47
2023-02-28T01:57:47.611Z,101475.22
2023-02-28T02:00:17.934Z,101466.00
2023-02-28T02:02:48.788Z,101474.09
2023-02-28T02:05:18.921Z,101474.09
2023-02-28T02:07:49.560Z,101478.59
2023-02-28T02:10:20.148Z,101478.69
2023-02-28T02:12:52.857Z,101481.72
2023-02-28T02:15:35.886Z,101480.03
2023-02-28T02:18:13.960Z,101474.84
2023-02-28T02:20:52.751Z,101480.53
2023-02-28T02:23:37.953Z,101480.09
2023-02-28T02:26:49.767Z,101480.59
2023-02-28T02:29:43.992Z,101471.63
2023-02-28T02:32:45.953Z,101473.25
2023-02-28T02:35:29.659Z,101476.03
2023-02-28T02:38:21.503Z,101475.97
2023-02-28T02:41:15.109Z,101472.44
2023-02-28T02:44:04.147Z,101463.63
2023-02-28T02:46:33.106Z,101465.47
2023-02-28T02:49:04.138Z,101469.56
2023-02-28T02:51:33.942Z,101470.91
2023-02-28T02:54:06.796Z,101462.16
2023-02-28T02:56:36.143Z,101463.53
2023-02-28T02:59:06.539Z,101466.00
2023-02-28T03:01:35.959Z,101470.09
2023-02-28T03:04:08.881Z,101457.84
2023-02-28T03:06:36.540Z,101466.22
2023-02-28T03:09:04.008Z,101469.28
2023-02-28T03:11:31.532Z,101478.59
2023-02-28T03:14:37.262Z,101480.91
2023-02-28T03:17:22.004Z,101483.28
2023-02-28T03:19:51.715Z,101480.87
2023-02-28T03:22:57.015Z,101481.03
2023-02-28T03:25:48.422Z,101493.88
2023-02-28T03:28:18.239Z,101499.56
2023-02-28T03:30:55.112Z,101499.91
2023-02-28T03:33:31.562Z,101495.91
2023-02-28T03:36:09.397Z,101497.94
2023-02-28T03:38:41.868Z,101498.37
2023-02-28T03:41:17.424Z,101496.47
2023-02-28T03:43:51.765Z,101492.53
2023-02-28T03:46:24.695Z,101490.75
2023-02-28T03:49:06.436Z,101488.31
2023-02-28T03:51:34.165Z,101495.69
2023-02-28T03:54:12.870Z,101500.06
2023-02-28T03:56:44.935Z,101498.75
2023-02-28T03:59:19.748Z,101494.19
2023-02-28T04:01:49.728Z,101497.87
2023-02-28T04:04:18.062Z,101507.47
2023-02-28T04:06:45.885Z,101499.91
2023-02-28T04:09:15.919Z,101505.06
2023-02-28T04:11:46.507Z,101503.03
2023-02-28T04:14:13.725Z,101513.84
2023-02-28T04:16:42.869Z,101511.91
2023-02-28T04:19:11.826Z,101510.31
2023-02-28T04:21:42.045Z,101508.63
2023-02-28T04:24:15.439Z,101512.16
2023-02-28T04:26:45.199Z,101519.28
2023-02-28T04:29:14.500Z,101517.91
2023-02-28T04:31:41.702Z,101513.09
2023-02-28T04:34:08.695Z,101520.94
2023-02-28T04:36:36.014Z,101512.50
2023-02-28T04:39:03.525Z,101512.00
2023-02-28T04:41:32.675Z,101508.31
2023-02-28T04:44:00.059Z,101513.78
2023-02-28T04:46:27.052Z,101507.28
2023-02-28T04:48:55.531Z,101510.28
2023-02-28T04:51:22.440Z,101512.00
2023-02-28T04:53:50.084Z,101507.47
2023-02-28T04:56:19.365Z,101510.22
2023-02-28T04:58:46.531Z,101515.03
2023-02-28T05:01:26.044Z,101508.25
2023-02-28T05:03:54.625Z,101507.75
2023-02-28T05:06:22.968Z,101509.41
2023-02-28T05:08:49.831Z,101513.84
2023-02-28T05:11:30.518Z,101512.50
2023-02-28T05:13:57.666Z,101514.81
2023-02-28T05:16:24.716Z,101502.59
2023-02-28T05:18:51.747Z,101502.44
2023-02-28T05:21:29.493Z,101508.19
2023-02-28T05:23:58.692Z,101514.34
2023-02-28T05:26:25.869Z,101511.87
2023-02-28T05:28:52.909Z,101508.75
2023-02-28T05:31:19.925Z,101508.13
2023-02-28T05:33:47.227Z,101503.56
2023-02-28T05:36:14.304Z,101512.34
2023-02-28T05:38:41.225Z,101509.78
2023-02-28T05:41:10.439Z,101514.22
2023-02-28T05:43:38.660Z,101509.59
2023-02-28T05:46:11.191Z,101522.53
2023-02-28T05:48:39.602Z,101526.06
2023-02-28T05:51:07.791Z,101524.94
2023-02-28T05:53:35.120Z,101531.59
2023-02-28T05:56:02.476Z,101538.37
2023-02-28T05:58:32.032Z,101539.69
2023-02-28T06:01:19.726Z,101541.06
2023-02-28T06:03:46.634Z,101540.06
2023-02-28T06:06:13.539Z,101544.47
2023-02-28T06:08:40.409Z,101553.62
2023-02-28T06:11:07.970Z,101562.72
2023-02-28T06:13:34.842Z,101560.69
2023-02-28T06:16:02.544Z,101553.91
2023-02-28T06:18:29.527Z,101555.91
2023-02-28T06:20:57.217Z,101568.75
2023-02-28T06:23:25.101Z,101570.72
2023-02-28T06:25:52.079Z,101565.72
2023-02-28T06:28:18.997Z,101571.75
2023-02-28T06:30:46.623Z,101573.50
2023-02-28T06:33:13.528Z,101580.13
2023-02-28T06:35:40.742Z,101573.16
2023-02-28T06:38:07.739Z,101582.22
2023-02-28T06:40:37.994Z,101590.28
2023-02-28T06:43:05.118Z,101594.03
2023-02-28T06:45:32.028Z,101593.03
2023-02-28T06:47:59.325Z,101598.84
2023-02-28T06:50:26.537Z,101603.00
2023-02-28T06:52:55.131Z,101605.81
2023-02-28T06:55:21.971Z,101611.62
2023-02-28T06:57:49.012Z,101610.53
2023-02-28T07:00:16.479Z,101610.16
2023-02-28T07:02:43.518Z,101605.94
2023-02-28T07:05:10.452Z,101603.00
2023-02-28T07:07:39.651Z,101597.91
2023-02-28T07:10:06.991Z,101599.16
2023-02-28T07:12:33.986Z,101596.81
2023-02-28T07:15:00.976Z,101599.44
2023-02-28T07:17:28.987Z,101604.06
2023-02-28T07:19:57.586Z,101605.47
2023-02-28T07:22:26.758Z,101596.09
2023-02-28T07:24:53.792Z,101596.22
2023-02-28T07:27:27.054Z,101600.81
2023-02-28T07:29:54.555Z,101603.16
2023-02-28T07:32:23.167Z,101604.03
2023-02-28T07:34:50.425Z,101605.56
2023-02-28T07:37:17.382Z,101605.12
2023-02-28T07:39:44.260Z,101599.25
2023-02-28T07:42:13.030Z,101601.78
2023-02-28T07:44:41.794Z,101606.37
2023-02-28T07:47:10.303Z,101599.03
2023-02-28T07:49:38.221Z,101607.97
2023-02-28T07:52:07.378Z,101596.00
2023-02-28T07:54:35.274Z,101595.31
2023-02-28T07:57:02.286Z,101599.06
2023-02-28T07:59:31.902Z,101601.81
2023-02-28T08:02:00.420Z,101605.91
2023-02-28T08:04:27.870Z,101601.56
2023-02-28T08:06:55.229Z,101607.69
2023-02-28T08:09:22.184Z,101607.13
2023-02-28T08:11:51.109Z,101605.88
2023-02-28T08:14:18.003Z,101599.72
2023-02-28T08:16:45.085Z,101593.44
2023-02-28T08:19:12.063Z,101602.06
2023-02-28T08:21:39.058Z,101602.84
2023-02-28T08:24:06.494Z,101607.88
2023-02-28T08:26:33.395Z,101597.03
2023-02-28T08:29:01.512Z,101594.25
2023-02-28T08:31:29.255Z,101591.00
2023-02-28T08:34:01.940Z,101598.63
2023-02-28T08:36:29.984Z,101594.28
2023-02-28T08:38:59.195Z,101585.53
2023-02-28T08:41:26.212Z,101584.53
2023-02-28T08:43:56.843Z,101577.97
2023-02-28T08:46:24.651Z,101589.47
2023-02-28T08:48:55.990Z,101591.69
2023-02-28T08:51:28.278Z,101590.50
2023-02-28T08:53:59.627Z,101592.06
2023-02-28T08:56:28.299Z,101585.75
2023-02-28T08:58:56.870Z,101590.03
2023-02-28T09:01:28.587Z,101592.34
2023-02-28T09:06:29.205Z,101595.25
2023-02-28T09:09:00.700Z,101593.34
2023-02-28T09:11:38.726Z,101594.78
2023-02-28T09:14:06.198Z,101596.22
2023-02-28T09:16:34.662Z,101596.22
2023-02-28T09:19:02.804Z,101587.44
2023-02-28T09:21:33.140Z,101586.81
2023-02-28T09:24:00.108Z,101588.19
2023-02-28T09:26:34.868Z,101589.22
2023-02-28T09:29:10.066Z,101583.88
2023-02-28T09:31:37.150Z,101579.16
2023-02-28T09:34:07.760Z,101583.47
2023-02-28T09:36:44.684Z,101577.81
2023-02-28T09:39:13.724Z,101585.91
2023-02-28T09:41:53.424Z,101581.00
2023-02-28T09:44:39.431Z,101571.75
2023-02-28T09:47:18.079Z,101569.28
2023-02-28T09:49:49.504Z,101567.19
2023-02-28T09:52:31.624Z,101558.41
2023-02-28T09:55:19.176Z,101563.72
2023-02-28T09:57:47.024Z,101563.72
2023-02-28T10:00:26.060Z,101564.97
2023-02-28T10:03:36.169Z,101570.25
2023-02-28T10:06:29.797Z,101568.50
2023-02-28T10:09:17.096Z,101560.56
2023-02-28T10:14:21.681Z,101554.41
2023-02-28T10:17:14.677Z,101570.00
2023-02-28T10:19:41.585Z,101567.72
2023-02-28T10:22:18.592Z,101566.22
2023-02-28T10:24:55.554Z,101566.47
2023-02-28T10:27:25.038Z,101570.34
2023-02-28T10:30:01.716Z,101568.09
2023-02-28T10:32:37.158Z,101564.41
2023-02-28T10:35:19.450Z,101549.88
2023-02-28T10:37:51.708Z,101551.78
2023-02-28T10:40:18.547Z,101561.50
2023-02-28T10:43:02.847Z,101557.91
2023-02-28T10:45:33.139Z,101544.72
2023-02-28T10:48:07.464Z,101547.97
2023-02-28T10:50:50.904Z,101528.87
2023-02-28T10:53:26.941Z,101537.34
2023-02-28T10:56:20.202Z,101542.37
2023-02-28T10:58:52.520Z,101529.41
2023-02-28T11:01:35.295Z,101529.69
2023-02-28T11:04:02.905Z,101530.47
2023-02-28T11:06:36.806Z,101521.47
2023-02-28T11:09:25.438Z,101513.97
2023-02-28T11:11:54.087Z,101514.53
2023-02-28T11:14:28.924Z,101521.31
2023-02-28T11:16:59.606Z,101511.59
2023-02-28T11:19:35.213Z,101506.06
2023-02-28T11:22:06.090Z,101502.91
2023-02-28T11:24:41.016Z,101499.34
2023-02-28T11:27:25.464Z,101494.78
2023-02-28T11:29:52.608Z,101496.44
2023-02-28T11:32:30.142Z,101487.72
2023-02-28T11:35:12.340Z,101494.37
2023-02-28T11:37:40.457Z,101490.56
2023-02-28T11:40:19.548Z,101495.47
2023-02-28T11:42:52.788Z,101481.81
2023-02-28T11:45:50.350Z,101480.31
2023-02-28T11:48:22.293Z,101481.31
2023-02-28T11:51:28.063Z,101474.13
2023-02-28T11:54:07.103Z,101472.00
2023-02-28T11:56:37.003Z,101466.41
2023-02-28T11:59:38.255Z,101463.28
2023-02-28T12:02:26.373Z,101461.72
2023-02-28T12:05:11.220Z,101463.97
2023-02-28T12:08:01.864Z,101454.66
2023-02-28T12:10:31.606Z,101451.06
2023-02-28T12:13:27.349Z,101453.84
2023-02-28T12:16:18.942Z,101456.78
2023-02-28T12:19:08.190Z,101449.63
2023-02-28T12:21:54.610Z,101441.72
2023-02-28T12:24:35.393Z,101435.69
2023-02-28T12:27:07.463Z,101429.91
2023-02-28T12:29:46.969Z,101428.94
2023-02-28T12:32:23.053Z,101431.28
2023-02-28T12:35:02.301Z,101430.34
2023-02-28T12:37:45.000Z,101434.31
2023-02-28T12:40:21.497Z,101430.00
2023-02-28T12:42:54.298Z,101426.50
2023-02-28T12:45:26.285Z,101409.34
2023-02-28T12:48:05.446Z,101407.84
2023-02-28T12:50:34.460Z,101423.06
2023-02-28T12:53:32.431Z,101419.38
2023-02-28T12:55:59.387Z,101412.41
2023-02-28T12:58:33.771Z,101421.13
2023-02-28T13:01:27.034Z,101424.34
2023-02-28T13:04:26.150Z,101412.56
2023-02-28T13:07:11.266Z,101416.19
2023-02-28T13:09:40.058Z,101420.72
2023-02-28T13:12:17.891Z,101410.66
2023-02-28T13:14:45.156Z,101410.88
2023-02-28T13:17:22.380Z,101417.56
2023-02-28T13:19:55.436Z,101416.81
2023-02-28T13:22:22.408Z,101411.81
2023-02-28T13:24:52.865Z,101419.84
2023-02-28T13:27:26.608Z,101407.13
2023-02-28T13:29:54.581Z,101400.81
2023-02-28T13:32:33.077Z,101406.75
2023-02-28T13:34:59.862Z,101408.34
2023-02-28T13:37:26.716Z,101409.28
2023-02-28T13:40:00.578Z,101417.50
2023-02-28T13:42:50.765Z,101411.31
2023-02-28T13:45:29.203Z,101404.78
2023-02-28T13:48:01.102Z,101407.63
2023-02-28T13:50:30.209Z,101412.06
2023-02-28T13:53:15.505Z,101410.59
2023-02-28T13:56:07.778Z,101398.81
2023-02-28T13:58:53.345Z,101402.75
2023-02-28T14:01:56.941Z,101406.44
2023-02-28T14:04:45.577Z,101396.09
2023-02-28T14:07:24.439Z,101392.34
2023-02-28T14:09:58.672Z,101389.78
2023-02-28T14:12:56.981Z,101393.25
2023-02-28T14:15:49.396Z,101393.28
2023-02-28T14:18:27.398Z,101382.47
2023-02-28T14:21:27.565Z,101388.16
2023-02-28T14:24:19.065Z,101383.25
2023-02-28T14:27:17.006Z,101381.22
2023-02-28T14:30:17.910Z,101379.59
2023-02-28T14:33:15.230Z,101385.53
2023-02-28T14:36:00.312Z,101377.78
2023-02-28T14:38:41.587Z,101378.38
2023-02-28T14:41:39.963Z,101373.63
2023-02-28T14:44:24.872Z,101379.41
2023-02-28T14:46:58.034Z,101376.53
2023-02-28T14:49:29.675Z,101384.72
2023-02-28T14:52:05.000Z,101374.84
2023-02-28T14:54:32.047Z,101362.53
2023-02-28T14:56:59.166Z,101364.84
2023-02-28T14:59:36.857Z,101364.16
2023-02-28T15:02:24.673Z,101368.84
2023-02-28T15:05:03.474Z,101370.75
2023-02-28T15:07:32.822Z,101363.75
2023-02-28T15:10:28.093Z,101363.47
2023-02-28T15:12:59.250Z,101368.28
2023-02-28T15:15:46.160Z,101367.91
2023-02-28T15:18:39.744Z,101380.56
2023-02-28T15:21:12.709Z,101377.06
2023-02-28T15:23:44.852Z,101382.75
2023-02-28T15:26:20.787Z,101378.06
2023-02-28T15:28:50.562Z,101374.50
2023-02-28T15:31:56.004Z,101371.72
2023-02-28T15:34:42.941Z,101378.12
2023-02-28T15:38:03.225Z,101380.38
2023-02-28T15:40:44.132Z,101380.47
2023-02-28T15:43:24.302Z,101378.03
2023-02-28T15:46:07.750Z,101377.00
2023-02-28T15:48:38.428Z,101370.81
2023-02-28T15:51:25.713Z,101368.44
2023-02-28T15:53:58.614Z,101369.03
2023-02-28T15:56:30.354Z,101378.53
2023-02-28T15:59:04.228Z,101379.16
2023-02-28T16:01:39.281Z,101374.19
2023-02-28T16:04:17.702Z,101378.66
2023-02-28T16:06:47.734Z,101383.50
2023-02-28T16:09:18.321Z,101381.94
2023-02-28T16:11:49.349Z,101384.28
2023-02-28T16:14:24.145Z,101386.31
2023-02-28T16:16:54.686Z,101383.03
2023-02-28T16:19:24.349Z,101389.78
2023-02-28T16:21:52.358Z,101386.34
2023-02-28T16:24:19.299Z,101389.66
2023-02-28T16:26:49.444Z,101385.66
2023-02-28T16:29:27.622Z,101389.87
2023-02-28T16:31:54.920Z,101388.34
2023-02-28T16:34:22.206Z,101394.44
2023-02-28T16:36:50.242Z,101387.91
2023-02-28T16:39:19.336Z,101390.16
2023-02-28T16:41:48.190Z,101389.28
2023-02-28T16:44:38.450Z,101396.06
2023-02-28T16:47:05.784Z,101390.88
2023-02-28T16:49:32.748Z,101390.47
2023-02-28T16:51:59.783Z,101405.84
2023-02-28T16:54:26.789Z,101399.72
2023-02-28T16:56:54.085Z,101411.28
2023-02-28T16:59:25.899Z,101412.00
2023-02-28T17:01:53.220Z,101417.38
2023-02-28T17:04:20.531Z,101418.84
2023-02-28T17:06:47.578Z,101428.44
2023-02-28T17:09:28.370Z,101430.41
2023-02-28T17:12:00.104Z,101430.25
2023-02-28T17:14:27.066Z,101432.63
2023-02-28T17:16:53.955Z,101428.12
2023-02-28T17:19:21.780Z,101441.34
2023-02-28T17:21:48.859Z,101438.47
2023-02-28T17:24:28.908Z,101441.66
2023-02-28T17:26:57.516Z,101442.22
2023-02-28T17:29:27.692Z,101443.75
2023-02-28T17:31:54.941Z,101444.47
2023-02-28T17:34:23.109Z,101445.00
2023-02-28T17:36:52.267Z,101441.97
2023-02-28T17:39:26.860Z,101439.16
2023-02-28T17:41:55.205Z,101443.94
2023-02-28T17:44:23.483Z,101438.41
2023-02-28T17:46:50.732Z,101447.84
2023-02-28T17:49:19.217Z,101441.91
2023-02-28T17:51:46.543Z,101439.94
2023-02-28T17:54:15.105Z,101439.59
2023-02-28T17:56:44.223Z,101435.00
2023-02-28T17:59:12.869Z,101433.94
2023-02-28T18:01:40.698Z,101429.09
2023-02-28T18:04:07.806Z,101428.84
2023-02-28T18:06:47.490Z,101430.47
2023-02-28T18:09:19.769Z,101432.72
2023-02-28T18:11:46.583Z,101431.03
2023-02-28T18:14:13.800Z,101433.19
2023-02-28T18:16:40.767Z,101437.66
2023-02-28T18:19:08.702Z,101435.03
2023-02-28T18:21:36.409Z,101434.50
2023-02-28T18:24:03.404Z,101436.56
2023-02-28T18:26:30.624Z,101435.62
2023-02-28T18:28:57.841Z,101434.75
2023-02-28T18:31:24.690Z,101428.44
2023-02-28T18:33:53.359Z,101444.84
2023-02-28T18:36:22.192Z,101440.16
2023-02-28T18:38:50.686Z,101446.53
2023-02-28T18:41:20.938Z,101450.19
2023-02-28T18:43:49.761Z,101453.75
2023-02-28T18:46:19.559Z,101453.31
2023-02-28T18:48:47.573Z,101451.28
2023-02-28T18:51:20.014Z,101451.16
2023-02-28T18:53:47.385Z,101450.34
2023-02-28T18:56:16.609Z,101448.47
2023-02-28T18:58:43.908Z,101457.47
2023-02-28T19:01:27.149Z,101459.25
2023-02-28T19:03:54.078Z,101453.41
2023-02-28T19:06:21.183Z,101449.34
2023-02-28T19:08:49.488Z,101454.69
2023-02-28T19:11:18.592Z,101453.69
2023-02-28T19:13:46.602Z,101458.06
2023-02-28T19:16:16.220Z,101463.41
2023-02-28T19:18:43.637Z,101468.66
2023-02-28T19:21:12.549Z,101460.91
2023-02-28T19:23:41.378Z,101460.91
2023-02-28T19:26:21.086Z,101460.37
2023-02-28T19:28:49.038Z,101464.75
2023-02-28T19:31:24.414Z,101469.12
2023-02-28T19:33:56.206Z,101465.81
2023-02-28T19:36:24.156Z,101468.41
2023-02-28T19:38:51.114Z,101470.72
2023-02-28T19:41:18.429Z,101472.59
2023-02-28T19:43:45.848Z,101468.22
2023-02-28T19:46:14.015Z,101469.22
2023-02-28T19:48:42.559Z,101466.75
2023-02-28T19:51:12.608Z,101466.63
2023-02-28T19:53:41.667Z,101461.50
2023-02-28T19:56:09.822Z,101464.84
2023-02-28T19:58:37.584Z,101462.00
2023-02-28T20:01:16.209Z,101462.28
2023-02-28T20:03:43.711Z,101470.84
2023-02-28T20:06:15.741Z,101472.03
2023-02-28T20:08:43.270Z,101463.34
2023-02-28T20:11:16.808Z,101462.44
2023-02-28T20:13:45.396Z,101461.66
2023-02-28T20:16:14.227Z,101470.03
2023-02-28T20:18:44.384Z,101473.56
2023-02-28T20:21:12.711Z,101469.59
2023-02-28T20:23:40.522Z,101472.25
2023-02-28T20:26:08.184Z,101473.63
2023-02-28T20:28:35.118Z,101479.59
2023-02-28T20:31:02.157Z,101474.50
2023-02-28T20:33:29.247Z,101468.50
2023-02-28T20:36:02.932Z,101474.59
2023-02-28T20:38:29.854Z,101472.16
2023-02-28T20:40:59.500Z,101469.53
2023-02-28T20:43:26.502Z,101461.88
2023-02-28T20:45:55.139Z,101458.06
2023-02-28T20:48:22.561Z,101457.28
2023-02-28T20:50:54.655Z,101452.78
2023-02-28T20:53:22.145Z,101454.56
2023-02-28T20:56:11.340Z,101448.34
2023-02-28T20:58:38.649Z,101445.72
2023-02-28T21:01:12.993Z,101448.34
2023-02-28T21:03:40.580Z,101438.81
2023-02-28T21:06:08.267Z,101432.56
2023-02-28T21:08:36.864Z,101439.63
2023-02-28T21:11:09.115Z,101436.91
2023-02-28T21:13:36.548Z,101428.97
2023-02-28T21:16:05.772Z,101439.66
2023-02-28T21:18:34.966Z,101436.87
2023-02-28T21:21:11.363Z,101429.75
2023-02-28T21:23:38.281Z,101428.50
2023-02-28T21:26:07.803Z,101426.03
2023-02-28T21:28:35.676Z,101427.50
2023-02-28T21:31:07.949Z,101429.03
2023-02-28T21:33:36.402Z,101426.84
2023-02-28T21:36:06.538Z,101425.81
2023-02-28T21:38:35.144Z,101431.47
2023-02-28T21:41:10.500Z,101423.50
2023-02-28T21:43:37.942Z,101429.25
2023-02-28T21:46:07.216Z,101422.81
2023-02-28T21:48:34.937Z,101413.53
2023-02-28T21:51:07.349Z,101410.22
2023-02-28T21:53:36.579Z,101407.38
2023-02-28T21:56:06.094Z,101406.75
2023-02-28T21:58:33.478Z,101402.44
2023-02-28T22:01:12.550Z,101405.34
2023-02-28T22:03:39.749Z,101406.19
2023-02-28T22:06:22.065Z,101415.00
2023-02-28T22:08:52.873Z,101410.56
2023-02-28T22:11:21.293Z,101412.72
2023-02-28T22:13:48.948Z,101408.28
2023-02-28T22:16:18.795Z,101414.91
2023-02-28T22:18:45.953Z,101416.50
2023-02-28T22:21:14.263Z,101419.19
2023-02-28T22:23:42.328Z,101415.94
2023-02-28T22:26:11.714Z,101417.44
2023-02-28T22:28:39.335Z,101429.16
2023-02-28T22:31:15.073Z,101421.81
2023-02-28T22:33:42.699Z,101417.50
2023-02-28T22:36:10.297Z,101421.53
2023-02-28T22:38:37.427Z,101433.84
2023-02-28T22:41:05.682Z,101427.38
2023-02-28T22:43:32.884Z,101436.13
2023-02-28T22:46:04.914Z,101434.41
2023-02-28T22:48:31.899Z,101427.16
2023-02-28T22:51:16.475Z,101432.25
2023-02-28T22:53:45.581Z,101430.91
2023-02-28T22:56:14.674Z,101431.00
2023-02-28T22:58:43.359Z,101434.97
2023-02-28T23:01:17.059Z,101445.72
2023-02-28T23:03:44.495Z,101444.66
2023-02-28T23:06:30.008Z,101447.22
2023-02-28T23:09:00.520Z,101443.91
2023-02-28T23:11:33.683Z,101448.19
2023-02-28T23:14:00.812Z,101440.53
2023-02-28T23:16:35.170Z,101441.91
2023-02-28T23:19:05.028Z,101449.66
2023-02-28T23:21:32.057Z,101440.50
2023-02-28T23:24:00.999Z,101441.91
2023-02-28T23:26:28.094Z,101440.34
2023-02-28T23:28:55.299Z,101442.22
2023-02-28T23:31:22.312Z,101442.84
2023-02-28T23:33:49.626Z,101439.41
2023-02-28T23:36:17.418Z,101444.56
2023-02-28T23:38:48.295Z,101442.94
2023-02-28T23:41:16.122Z,101435.91
2023-02-28T23:43:43.395Z,101432.25
2023-02-28T23:46:12.163Z,101433.69
2023-02-28T23:48:40.200Z,101433.31
2023-02-28T23:51:10.941Z,101440.09
2023-02-28T23:53:40.113Z,101435.28
2023-02-28T23:56:08.998Z,101428.94
2023-02-28T23:58:36.273Z,101433.87
